Baroda, MI (49101)

5:38 PM EDT on April 26, 2017 (GMT -0400)
home9085 | | Change Station

Elev 666 ft 41.95 °N, 86.52 °W | Updated 20 seconds ago

Partly Cloudy
Partly Cloudy
78.3 °F
Feels Like 80 °F
N
4.9
Wind Variable Wind from East
Gusts 13.6 mph

Today
High -- | Low -- °F
--% Chance of Precip.
Yesterday
High -- | Low -- °F
Precip. -- in
Pressure 29.48 in
Visibility 10.0 miles
Clouds Clear
Heat Index 80 °F
Dew Point 59 °F
Humidity 52%
Rainfall 0.00 in
Snow Depth Not available.
6:48 AM 8:39 PM
New Moon, 0% visible
METAR KBEH 262053Z AUTO 27014KT 10SM CLR 23/12 A2949 RMK AO2 SLP981 T02280122 50012
Pressure 29.48 in
Visibility 10.0 miles
Clouds Clear
Heat Index 80 °F
Dew Point 59 °F
Humidity 52%
Rainfall 0.00 in
Snow Depth Not available.
6:48 AM 8:39 PM
New Moon, 0% visible
METAR KBEH 262053Z AUTO 27014KT 10SM CLR 23/12 A2949 RMK AO2 SLP981 T02280122 50012

Get Severe Weather Alerts

Thanks for signing up!

Be on the lookout for a verification email in your inbox.

You'll start receiving the daily forecast at 8 AM.

×

10-Day Weather Forecast

Almanac

Astronomy

Apr. 26, 2017 Rise Set
Actual Time
Civil Twilight
Nautical Twilight
Astronomical Twilight
Moon
Length of Visible Light
Length of Day
Tomorrow will be .
, % of the Moon is Illuminated

Today's Extremes

State Highs State Lows

Community

WunderPhotos

WunderBlog® & News

Nearby

Air Quality

  Air Quality AQ Index Pollutant
Not available.

Snow Depth

Station Depth Elevation

Earthquake Activity

City Distance Mag. Time & Date
Minimum magnitude displayed is 2.5.

Coastal Water Temperatures

Place Temperature

Stations

Nearby Weather Stations

Station Location Temp. Windchill Dew Point Humidity Wind Precip. Elev Updated Type
                   

Watches & Warnings

There are currently no watches in effect.